Terminal Aerodrome Forecast
Issued by NWS Sterling, VA

Current Version | Previous Version | Text Only | Print | Product List | Glossary Off
Versions: 1 2 3 4 5 6 7 8 9 10 11 12 13 14 15 16 17 18 19 20 21 22 23 24 25 26 27 28

000
FTUS41 KLWX 050106 AAA
TAFDCA
TAF AMD
KDCA 050106Z 0501/0524 36005KT 1/2SM -RA FG OVC006
     FM050300 36010KT 2SM -RA BR OVC006
     FM050800 36005KT 2SM -RAPL BR OVC008
     FM051100 34008KT 1SM -SNPL BR OVC006
     FM051400 36012G18KT 1/2SM SN OVC003
     FM052100 36010G15KT 2SM -SN OVC006=

USA.gov is the U.S. government's official web portal to all federal, state and local government web resources and services.